createdAt,value
2022-09-02T00:01:57.736Z,99757.66
2022-09-02T00:04:28.264Z,99757.91
2022-09-02T00:06:56.899Z,99749.59
2022-09-02T00:09:28.373Z,99751.53
2022-09-02T00:11:58.217Z,99744.84
2022-09-02T00:14:30.042Z,99751.00
2022-09-02T00:17:01.381Z,99758.25
2022-09-02T00:19:32.213Z,99761.06
2022-09-02T00:22:02.728Z,99752.00
2022-09-02T00:24:31.483Z,99739.47
2022-09-02T00:27:00.334Z,99753.16
2022-09-02T00:29:29.701Z,99742.31
2022-09-02T00:32:00.276Z,99753.34
2022-09-02T00:34:29.314Z,99739.78
2022-09-02T00:36:57.984Z,99745.28
2022-09-02T00:39:27.870Z,99740.44
2022-09-02T00:41:56.463Z,99746.66
2022-09-02T00:44:25.555Z,99741.63
2022-09-02T00:46:54.683Z,99746.09
2022-09-02T00:49:27.801Z,99744.50
2022-09-02T00:52:01.378Z,99744.69
2022-09-02T00:54:33.692Z,99744.00
2022-09-02T00:57:04.892Z,99740.00
2022-09-02T00:59:45.319Z,99739.88
2022-09-02T01:02:15.290Z,99744.28
2022-09-02T01:04:46.832Z,99743.53
2022-09-02T01:07:16.582Z,99741.13
2022-09-02T01:09:45.528Z,99740.44
2022-09-02T01:12:15.438Z,99747.28
2022-09-02T01:14:45.040Z,99750.16
2022-09-02T01:17:14.053Z,99742.53
2022-09-02T01:19:49.349Z,99754.56
2022-09-02T01:22:23.295Z,99754.69
2022-09-02T01:24:53.234Z,99752.34
2022-09-02T01:27:25.074Z,99746.56
2022-09-02T01:29:55.233Z,99751.91
2022-09-02T01:32:24.651Z,99752.09
2022-09-02T01:34:53.329Z,99753.81
2022-09-02T01:37:23.598Z,99755.78
2022-09-02T01:39:53.236Z,99746.69
2022-09-02T01:42:23.303Z,99754.41
2022-09-02T01:44:52.633Z,99755.38
2022-09-02T01:47:25.374Z,99737.69
2022-09-02T01:49:55.452Z,99758.16
2022-09-02T01:52:28.402Z,99752.22
2022-09-02T01:54:57.716Z,99752.13
2022-09-02T01:57:26.415Z,99753.78
2022-09-02T01:59:57.095Z,99756.34
2022-09-02T02:02:26.141Z,99754.59
2022-09-02T02:04:55.324Z,99753.13
2022-09-02T02:07:26.264Z,99748.03
2022-09-02T02:09:55.125Z,99745.63
2022-09-02T02:12:23.994Z,99749.00
2022-09-02T02:14:52.824Z,99750.59
2022-09-02T02:17:24.082Z,99753.13
2022-09-02T02:19:52.791Z,99752.38
2022-09-02T02:22:21.612Z,99751.75
2022-09-02T02:24:51.783Z,99733.19
2022-09-02T02:27:20.742Z,99751.97
2022-09-02T02:29:49.554Z,99753.69
2022-09-02T02:32:19.451Z,99723.09
2022-09-02T02:34:49.645Z,99748.53
2022-09-02T02:37:23.369Z,99745.16
2022-09-02T02:39:56.073Z,99750.28
2022-09-02T02:42:25.386Z,99750.22
2022-09-02T02:44:54.082Z,99750.16
2022-09-02T02:47:22.933Z,99748.38
2022-09-02T02:49:51.661Z,99749.94
2022-09-02T02:52:20.803Z,99757.63
2022-09-02T02:54:49.932Z,99758.47
2022-09-02T02:57:20.037Z,99759.13
2022-09-02T02:59:48.805Z,99754.66
2022-09-02T03:02:17.860Z,99761.31
2022-09-02T03:04:46.635Z,99748.31
2022-09-02T03:07:15.352Z,99754.16
2022-09-02T03:09:44.454Z,99750.59
2022-09-02T03:12:17.513Z,99749.69
2022-09-02T03:14:49.605Z,99754.03
2022-09-02T03:17:20.368Z,99748.94
2022-09-02T03:19:51.141Z,99750.78
2022-09-02T03:22:20.152Z,99750.78
2022-09-02T03:24:49.004Z,99749.00
2022-09-02T03:27:17.752Z,99745.53
2022-09-02T03:29:47.831Z,99748.94
2022-09-02T03:32:16.733Z,99748.88
2022-09-02T03:34:46.696Z,99751.69
2022-09-02T03:37:15.596Z,99756.06
2022-09-02T03:39:44.256Z,99750.94
2022-09-02T03:42:15.119Z,99747.56
2022-09-02T03:44:52.693Z,99746.09
2022-09-02T03:47:21.921Z,99759.78
2022-09-02T03:49:55.706Z,99749.69
2022-09-02T03:52:26.344Z,99754.16
2022-09-02T03:54:55.133Z,99755.13
2022-09-02T03:57:26.253Z,99753.47
2022-09-02T03:59:56.752Z,99755.13
2022-09-02T04:02:26.365Z,99758.38
2022-09-02T04:04:55.088Z,99758.22
2022-09-02T04:07:24.252Z,99759.78
2022-09-02T04:09:55.404Z,99757.84
2022-09-02T04:12:24.445Z,99759.41
2022-09-02T04:15:03.005Z,99752.41
2022-09-02T04:17:31.744Z,99765.94
2022-09-02T04:20:00.484Z,99761.63
2022-09-02T04:22:29.252Z,99768.41
2022-09-02T04:24:58.152Z,99772.59
2022-09-02T04:27:26.902Z,99764.72
2022-09-02T04:29:57.213Z,99762.09
2022-09-02T04:32:28.229Z,99770.69
2022-09-02T04:34:57.134Z,99763.63
2022-09-02T04:37:26.992Z,99766.03
2022-09-02T04:39:58.315Z,99771.03
2022-09-02T04:42:27.931Z,99773.53
2022-09-02T04:44:58.511Z,99767.50
2022-09-02T04:47:30.111Z,99767.44
2022-09-02T04:49:59.662Z,99769.78
2022-09-02T04:52:28.843Z,99775.69
2022-09-02T04:54:58.273Z,99775.47
2022-09-02T04:57:27.173Z,99762.47
2022-09-02T04:59:57.313Z,99766.63
2022-09-02T05:02:26.217Z,99761.28
2022-09-02T05:04:57.062Z,99760.28
2022-09-02T05:07:31.411Z,99764.44
2022-09-02T05:10:01.521Z,99764.22
2022-09-02T05:12:35.641Z,99759.78
2022-09-02T05:15:05.892Z,99758.00
2022-09-02T05:17:37.280Z,99761.38
2022-09-02T05:20:11.485Z,99762.91
2022-09-02T05:22:41.452Z,99763.69
2022-09-02T05:25:11.982Z,99770.47
2022-09-02T05:27:40.894Z,99768.63
2022-09-02T05:30:10.762Z,99772.91
2022-09-02T05:32:41.548Z,99772.84
2022-09-02T05:35:12.954Z,99779.69
2022-09-02T05:37:41.685Z,99777.84
2022-09-02T05:40:14.874Z,99775.19
2022-09-02T05:42:45.298Z,99762.44
2022-09-02T05:45:18.744Z,99765.00
2022-09-02T05:47:49.476Z,99771.06
2022-09-02T05:50:20.805Z,99771.06
2022-09-02T05:52:52.440Z,99762.59
2022-09-02T05:55:22.846Z,99770.88
2022-09-02T05:57:51.787Z,99772.53
2022-09-02T06:00:20.439Z,99772.56
2022-09-02T06:02:59.294Z,99770.75
2022-09-02T06:05:37.553Z,99775.84
2022-09-02T06:08:13.110Z,99778.31
2022-09-02T06:10:44.985Z,99762.94
2022-09-02T06:13:21.839Z,99773.13
2022-09-02T06:15:52.815Z,99770.56
2022-09-02T06:18:26.686Z,99768.72
2022-09-02T06:20:58.812Z,99766.00
2022-09-02T06:23:32.584Z,99767.56
2022-09-02T06:26:03.948Z,99766.75
2022-09-02T06:28:32.923Z,99769.06
2022-09-02T06:31:07.644Z,99768.16
2022-09-02T06:33:36.459Z,99766.56
2022-09-02T06:36:10.844Z,99775.63
2022-09-02T06:38:45.192Z,99771.25
2022-09-02T06:41:19.027Z,99765.94
2022-09-02T06:43:48.176Z,99769.31
2022-09-02T06:46:25.796Z,99766.53
2022-09-02T06:48:57.634Z,99771.63
2022-09-02T06:51:30.953Z,99729.81
2022-09-02T06:54:02.015Z,99768.47
2022-09-02T06:56:34.860Z,99766.66
2022-09-02T06:59:05.176Z,99768.25
2022-09-02T07:01:45.890Z,99767.16
2022-09-02T07:04:28.602Z,99766.22
2022-09-02T07:06:58.659Z,99774.66
2022-09-02T07:09:32.388Z,99770.38
2022-09-02T07:12:08.789Z,99765.84
2022-09-02T07:14:45.599Z,99759.81
2022-09-02T07:17:18.191Z,99763.97
2022-09-02T07:19:51.542Z,99768.06
2022-09-02T07:22:22.013Z,99765.72
2022-09-02T07:24:50.631Z,99764.06
2022-09-02T07:27:20.473Z,99767.78
2022-09-02T07:29:51.335Z,99767.16
2022-09-02T07:32:22.094Z,99769.59
2022-09-02T07:34:51.234Z,99766.53
2022-09-02T07:37:21.433Z,99768.63
2022-09-02T07:39:55.124Z,99762.50
2022-09-02T07:42:24.880Z,99758.00
2022-09-02T07:44:53.667Z,99763.44
2022-09-02T07:47:23.073Z,99749.91
2022-09-02T07:52:43.852Z,99752.03
2022-09-02T07:55:15.184Z,99747.63
2022-09-02T07:57:46.721Z,99748.91
2022-09-02T08:00:18.363Z,99758.25
2022-09-02T08:02:51.910Z,99754.59
2022-09-02T08:05:28.004Z,99756.06
2022-09-02T08:07:58.238Z,99751.22
2022-09-02T08:10:29.834Z,99749.38
2022-09-02T08:13:01.373Z,99740.44
2022-09-02T08:15:31.786Z,99745.13
2022-09-02T08:18:00.862Z,99736.41
2022-09-02T08:20:30.858Z,99740.63
2022-09-02T08:23:10.786Z,99739.78
2022-09-02T08:25:41.054Z,99741.38
2022-09-02T08:28:09.680Z,99736.69
2022-09-02T08:30:38.384Z,99735.28
2022-09-02T08:33:07.501Z,99728.00
2022-09-02T08:35:36.234Z,99735.00
2022-09-02T08:38:06.642Z,99726.94
2022-09-02T08:40:39.511Z,99730.06
2022-09-02T08:43:26.262Z,99731.47
2022-09-02T08:45:56.743Z,99731.47
2022-09-02T08:48:36.173Z,99726.00
2022-09-02T08:51:10.279Z,99721.94
2022-09-02T08:53:51.473Z,99725.94
2022-09-02T08:56:20.642Z,99723.56
2022-09-02T08:58:56.422Z,99723.31
2022-09-02T09:01:38.173Z,99719.84
2022-09-02T09:04:20.114Z,99716.94
2022-09-02T09:07:14.753Z,99709.88
2022-09-02T09:10:04.422Z,99715.16
2022-09-02T09:12:56.384Z,99709.41
2022-09-02T09:15:35.931Z,99707.56
2022-09-02T09:18:06.856Z,99704.13
2022-09-02T09:20:39.766Z,99701.88
2022-09-02T09:23:34.120Z,99698.19
2022-09-02T09:26:10.229Z,99697.19
2022-09-02T09:28:43.793Z,99695.06
2022-09-02T09:31:16.031Z,99698.19
2022-09-02T09:33:58.855Z,99696.66
2022-09-02T09:36:45.905Z,99697.16
2022-09-02T09:39:20.688Z,99692.31
2022-09-02T09:41:51.985Z,99692.13
2022-09-02T09:44:39.985Z,99693.63
2022-09-02T09:47:14.695Z,99689.78
2022-09-02T09:49:46.330Z,99683.38
2022-09-02T09:52:24.895Z,99674.66
2022-09-02T09:55:11.596Z,99677.66
2022-09-02T09:57:46.010Z,99672.47
2022-09-02T10:00:23.158Z,99677.69
2022-09-02T10:02:53.848Z,99673.78
2022-09-02T10:05:36.637Z,99674.78
2022-09-02T10:08:15.270Z,99666.78
2022-09-02T10:10:58.677Z,99665.53
2022-09-02T10:13:31.301Z,99665.31
2022-09-02T10:16:24.869Z,99658.00
2022-09-02T10:18:57.796Z,99654.69
2022-09-02T10:21:44.991Z,99651.28
2022-09-02T10:24:34.688Z,99647.97
2022-09-02T10:27:10.300Z,99644.34
2022-09-02T10:29:57.389Z,99635.81
2022-09-02T10:32:46.947Z,99636.09
2022-09-02T10:35:22.839Z,99641.88
2022-09-02T10:38:05.338Z,99641.88
2022-09-02T10:40:42.249Z,99647.47
2022-09-02T10:43:24.325Z,99651.19
2022-09-02T10:45:59.799Z,99645.59
2022-09-02T10:48:42.197Z,99638.31
2022-09-02T10:51:22.737Z,99636.81
2022-09-02T10:54:03.620Z,99640.25
2022-09-02T10:56:40.550Z,99631.06
2022-09-02T10:59:14.895Z,99640.41
2022-09-02T11:01:53.648Z,99637.06
2022-09-02T11:04:28.317Z,99636.25
2022-09-02T11:07:03.330Z,99630.75
2022-09-02T11:09:38.178Z,99628.59
2022-09-02T11:12:12.461Z,99631.56
2022-09-02T11:14:54.939Z,99624.13
2022-09-02T11:17:29.867Z,99632.41
2022-09-02T11:20:05.908Z,99630.59
2022-09-02T11:22:42.777Z,99628.47
2022-09-02T11:25:17.476Z,99625.84
2022-09-02T11:27:54.170Z,99625.75
2022-09-02T11:30:26.896Z,99631.91
2022-09-02T11:33:03.850Z,99615.94
2022-09-02T11:35:39.072Z,99621.59
2022-09-02T11:38:21.547Z,99631.75
2022-09-02T11:41:36.752Z,99619.97
2022-09-02T11:44:52.257Z,99614.59
2022-09-02T11:47:40.090Z,99610.72
2022-09-02T11:50:37.315Z,99615.56
2022-09-02T11:53:21.387Z,99602.81
2022-09-02T11:55:56.628Z,99596.06
2022-09-02T11:58:33.592Z,99597.66
2022-09-02T12:01:08.129Z,99591.16
2022-09-02T12:04:16.204Z,99595.88
2022-09-02T12:06:38.607Z,99591.47
2022-09-02T12:09:11.448Z,99595.34
2022-09-02T12:11:55.282Z,99586.97
2022-09-02T12:14:45.649Z,99584.22
2022-09-02T12:17:37.648Z,99584.03
2022-09-02T12:20:09.761Z,99587.97
2022-09-02T12:22:43.467Z,99587.13
2022-09-02T12:25:35.132Z,99589.38
2022-09-02T12:28:25.347Z,99579.66
2022-09-02T12:31:13.202Z,99583.84
2022-09-02T12:33:44.341Z,99584.72
2022-09-02T12:36:47.558Z,99576.13
2022-09-02T12:39:37.911Z,99571.97
2022-09-02T12:42:26.046Z,99573.03
2022-09-02T12:45:04.757Z,99558.16
2022-09-02T12:47:45.544Z,99572.78
2022-09-02T12:50:23.629Z,99563.53
2022-09-02T12:52:53.889Z,99558.53
2022-09-02T12:55:27.665Z,99562.91
2022-09-02T12:58:10.893Z,99555.81
2022-09-02T13:00:54.553Z,99556.06
2022-09-02T13:03:48.176Z,99550.09
2022-09-02T13:06:27.082Z,99549.34
2022-09-02T13:09:26.518Z,99550.06
2022-09-02T13:12:12.976Z,99545.00
2022-09-02T13:15:00.374Z,99542.97
2022-09-02T13:17:48.913Z,99541.22
2022-09-02T13:20:42.786Z,99534.28
2022-09-02T13:23:35.244Z,99534.00
2022-09-02T13:26:48.358Z,99535.38
2022-09-02T13:29:50.093Z,99539.56
2022-09-02T13:32:26.773Z,99533.13
2022-09-02T13:34:59.426Z,99529.09
2022-09-02T13:37:29.464Z,99523.56
2022-09-02T13:39:58.506Z,99528.09
2022-09-02T13:42:32.926Z,99528.81
2022-09-02T13:45:14.515Z,99517.63
2022-09-02T13:47:46.901Z,99532.34
2022-09-02T13:50:19.878Z,99529.53
2022-09-02T13:53:45.805Z,99530.09
2022-09-02T13:55:49.462Z,99520.94
2022-09-02T13:58:34.432Z,99522.06
2022-09-02T14:01:20.191Z,99520.19
2022-09-02T14:03:52.477Z,99519.03
2022-09-02T14:06:25.123Z,99513.63
2022-09-02T14:08:58.875Z,99521.34
2022-09-02T14:11:29.396Z,99516.06
2022-09-02T14:13:58.953Z,99519.78
2022-09-02T14:16:34.667Z,99521.56
2022-09-02T14:19:24.604Z,99516.09
2022-09-02T14:21:56.325Z,99510.50
2022-09-02T14:24:27.599Z,99508.69
2022-09-02T14:26:57.585Z,99515.09
2022-09-02T14:29:27.768Z,99509.47
2022-09-02T14:32:13.453Z,99505.66
2022-09-02T14:34:44.756Z,99504.28
2022-09-02T14:37:24.632Z,99510.28
2022-09-02T14:39:54.961Z,99513.66
2022-09-02T14:42:26.260Z,99502.25
2022-09-02T14:44:59.804Z,99504.69
2022-09-02T14:47:29.307Z,99497.75
2022-09-02T14:49:59.440Z,99499.28
2022-09-02T14:52:31.454Z,99496.69
2022-09-02T14:55:00.788Z,99492.34
2022-09-02T14:57:33.172Z,99496.97
2022-09-02T15:00:05.999Z,99497.81
2022-09-02T15:02:38.929Z,99497.53
2022-09-02T15:05:11.847Z,99500.06
2022-09-02T15:07:40.637Z,99500.16
2022-09-02T15:10:10.566Z,99499.22
2022-09-02T15:12:45.787Z,99495.59
2022-09-02T15:15:14.582Z,99494.00
2022-09-02T15:17:43.401Z,99493.63
2022-09-02T15:20:13.693Z,99492.34
2022-09-02T15:22:43.601Z,99495.31
2022-09-02T15:25:12.500Z,99493.00
2022-09-02T15:27:41.361Z,99486.75
2022-09-02T15:30:11.384Z,99491.13
2022-09-02T15:32:40.212Z,99490.28
2022-09-02T15:35:10.382Z,99486.09
2022-09-02T15:37:40.552Z,99488.34
2022-09-02T15:40:10.848Z,99496.34
2022-09-02T15:42:40.252Z,99495.97
2022-09-02T15:45:10.323Z,99493.88
2022-09-02T15:47:39.621Z,99491.41
2022-09-02T15:50:08.869Z,99499.38
2022-09-02T15:52:39.942Z,99494.44
2022-09-02T15:55:09.841Z,99497.91
2022-09-02T15:57:38.333Z,99492.91
2022-09-02T16:00:10.675Z,99493.81
2022-09-02T16:02:40.320Z,99489.53
2022-09-02T16:05:12.353Z,99498.59
2022-09-02T16:07:42.472Z,99501.34
2022-09-02T16:10:11.947Z,99494.16
2022-09-02T16:12:40.463Z,99497.38
2022-09-02T16:15:10.313Z,99509.28
2022-09-02T16:17:38.883Z,99495.19
2022-09-02T16:20:08.189Z,99497.53
2022-09-02T16:22:37.688Z,99484.78
2022-09-02T16:25:08.763Z,99499.03
2022-09-02T16:27:47.374Z,99496.91
2022-09-02T16:30:16.390Z,99499.47
2022-09-02T16:32:46.723Z,99500.09
2022-09-02T16:35:15.621Z,99496.19
2022-09-02T16:37:45.085Z,99502.00
2022-09-02T16:40:21.832Z,99498.38
2022-09-02T16:42:51.702Z,99497.00
2022-09-02T16:45:20.253Z,99500.16
2022-09-02T16:47:49.026Z,99500.00
2022-09-02T16:50:17.842Z,99497.28
2022-09-02T16:52:46.322Z,99499.38
2022-09-02T16:55:19.093Z,99490.06
2022-09-02T16:57:47.738Z,99486.16
2022-09-02T17:00:17.906Z,99494.84
2022-09-02T17:02:46.551Z,99491.16
2022-09-02T17:05:17.854Z,99495.50
2022-09-02T17:07:47.503Z,99493.50
2022-09-02T17:10:17.666Z,99489.84
2022-09-02T17:12:46.363Z,99494.25
2022-09-02T17:15:15.055Z,99493.75
2022-09-02T17:17:44.328Z,99499.22
2022-09-02T17:20:13.357Z,99494.31
2022-09-02T17:22:42.537Z,99499.63
2022-09-02T17:25:11.605Z,99501.56
2022-09-02T17:27:42.205Z,99496.78
2022-09-02T17:30:12.561Z,99505.56
2022-09-02T17:32:42.857Z,99502.47
2022-09-02T17:35:13.196Z,99503.56
2022-09-02T17:37:42.019Z,99503.03
2022-09-02T17:40:34.523Z,99504.78
2022-09-02T17:43:03.857Z,99509.72
2022-09-02T17:45:32.584Z,99508.81
2022-09-02T17:48:32.007Z,99511.66
2022-09-02T17:50:51.292Z,99516.25
2022-09-02T17:53:19.826Z,99514.63
2022-09-02T17:55:51.775Z,99519.41
2022-09-02T17:58:23.224Z,99529.16
2022-09-02T18:01:00.776Z,99523.28
2022-09-02T18:03:42.565Z,99527.72
2022-09-02T18:06:15.027Z,99517.25
2022-09-02T18:08:53.786Z,99525.47
2022-09-02T18:11:23.379Z,99528.31
2022-09-02T18:14:05.947Z,99523.34
2022-09-02T18:16:40.928Z,99525.16
2022-09-02T18:19:19.925Z,99533.28
2022-09-02T18:22:00.007Z,99532.50
2022-09-02T18:24:44.287Z,99535.97
2022-09-02T18:27:21.297Z,99537.78
2022-09-02T18:30:03.651Z,99541.72
2022-09-02T18:32:48.936Z,99545.75
2022-09-02T18:35:27.061Z,99548.00
2022-09-02T18:38:07.947Z,99550.00
2022-09-02T18:40:45.466Z,99549.13
2022-09-02T18:43:23.569Z,99547.41
2022-09-02T18:45:55.622Z,99551.91
2022-09-02T18:48:29.448Z,99552.66
2022-09-02T18:51:02.097Z,99552.69
2022-09-02T18:53:33.638Z,99560.59
2022-09-02T18:56:07.943Z,99570.28
2022-09-02T18:58:43.914Z,99562.69
2022-09-02T19:01:20.868Z,99568.81
2022-09-02T19:03:50.922Z,99566.22
2022-09-02T19:06:21.973Z,99567.25
2022-09-02T19:08:57.991Z,99573.38
2022-09-02T19:11:27.614Z,99580.44
2022-09-02T19:14:01.333Z,99566.03
2022-09-02T19:16:35.277Z,99565.47
2022-09-02T19:19:04.520Z,99565.66
2022-09-02T19:21:37.487Z,99567.44
2022-09-02T19:24:10.345Z,99569.22
2022-09-02T19:26:40.946Z,99570.94
2022-09-02T19:29:13.453Z,99569.31
2022-09-02T19:31:47.301Z,99570.38
2022-09-02T19:34:17.969Z,99570.50
2022-09-02T19:36:50.259Z,99576.50
2022-09-02T19:39:19.322Z,99576.50
2022-09-02T19:41:50.436Z,99576.50
2022-09-02T19:44:19.548Z,99579.88
2022-09-02T19:49:39.019Z,99579.88
2022-09-02T19:52:08.226Z,99579.06
2022-09-02T19:54:37.828Z,99576.50
2022-09-02T19:57:06.948Z,99579.88
2022-09-02T19:59:35.805Z,99574.69
2022-09-02T20:02:06.866Z,99569.84
2022-09-02T20:04:35.827Z,99588.56
2022-09-02T20:07:04.826Z,99585.13
2022-09-02T20:09:34.218Z,99580.03
2022-09-02T20:12:02.978Z,99588.78
2022-09-02T20:14:31.737Z,99581.91
2022-09-02T20:17:03.725Z,99588.78
2022-09-02T20:19:34.979Z,99593.94
2022-09-02T20:22:05.315Z,99600.06
2022-09-02T20:24:36.359Z,99592.41
2022-09-02T20:27:17.779Z,99602.22
2022-09-02T20:30:01.017Z,99600.03
2022-09-02T20:32:45.219Z,99606.28
2022-09-02T20:35:35.323Z,99597.09
2022-09-02T20:38:16.958Z,99599.63
2022-09-02T20:40:58.155Z,99602.25
2022-09-02T20:43:53.817Z,99596.25
2022-09-02T20:46:35.863Z,99610.88
2022-09-02T20:49:23.675Z,99617.53
2022-09-02T20:51:59.539Z,99616.75
2022-09-02T20:54:39.017Z,99613.28
2022-09-02T20:57:23.690Z,99612.38
2022-09-02T21:00:03.425Z,99616.81
2022-09-02T21:02:43.759Z,99611.66
2022-09-02T21:05:22.248Z,99613.41
2022-09-02T21:08:01.579Z,99613.59
2022-09-02T21:10:34.606Z,99613.78
2022-09-02T21:13:12.050Z,99613.41
2022-09-02T21:15:46.187Z,99613.69
2022-09-02T21:18:21.991Z,99612.16
2022-09-02T21:20:57.436Z,99620.94
2022-09-02T21:23:33.765Z,99619.44
2022-09-02T21:26:16.167Z,99617.81
2022-09-02T21:28:50.869Z,99617.91
2022-09-02T21:31:29.700Z,99622.25
2022-09-02T21:34:06.148Z,99620.47
2022-09-02T21:36:37.290Z,99621.19
2022-09-02T21:39:13.876Z,99620.16
2022-09-02T21:41:46.586Z,99620.88
2022-09-02T21:44:24.809Z,99629.34
2022-09-02T21:47:01.764Z,99620.56
2022-09-02T21:49:48.635Z,99629.94
2022-09-02T21:52:31.097Z,99623.13
2022-09-02T21:55:10.515Z,99622.31
2022-09-02T21:57:55.534Z,99624.19
2022-09-02T22:00:24.796Z,99621.69
2022-09-02T22:03:03.218Z,99630.34
2022-09-02T22:05:49.028Z,99621.03
2022-09-02T22:08:29.237Z,99621.22
2022-09-02T22:11:08.227Z,99618.88
2022-09-02T22:13:37.990Z,99629.34
2022-09-02T22:16:18.335Z,99635.56
2022-09-02T22:18:54.490Z,99630.56
2022-09-02T22:21:30.629Z,99628.94
2022-09-02T22:23:59.670Z,99630.63
2022-09-02T22:26:38.380Z,99629.16
2022-09-02T22:29:17.697Z,99628.25
2022-09-02T22:31:51.461Z,99629.78
2022-09-02T22:34:24.128Z,99621.19
2022-09-02T22:36:58.661Z,99625.94
2022-09-02T22:39:35.529Z,99631.28
2022-09-02T22:42:16.229Z,99631.41
2022-09-02T22:45:00.338Z,99627.22
2022-09-02T22:47:40.091Z,99629.91
2022-09-02T22:50:20.421Z,99628.09
2022-09-02T22:52:55.819Z,99625.34
2022-09-02T22:55:47.102Z,99623.56
2022-09-02T22:58:38.903Z,99626.06
2022-09-02T23:01:19.968Z,99621.84
2022-09-02T23:04:02.907Z,99629.56
2022-09-02T23:06:33.207Z,99628.72
2022-09-02T23:09:08.763Z,99622.69
2022-09-02T23:11:44.632Z,99629.75
2022-09-02T23:14:27.012Z,99624.69
2022-09-02T23:17:34.879Z,99623.03
2022-09-02T23:20:12.444Z,99624.75
2022-09-02T23:23:04.997Z,99626.66
2022-09-02T23:25:43.943Z,99623.69
2022-09-02T23:28:17.264Z,99627.56
2022-09-02T23:30:55.572Z,99627.94
2022-09-02T23:33:35.674Z,99640.47
2022-09-02T23:36:14.810Z,99641.31
2022-09-02T23:38:58.174Z,99641.53
2022-09-02T23:41:28.042Z,99644.19
2022-09-02T23:43:57.451Z,99643.28
2022-09-02T23:46:43.291Z,99640.81
2022-09-02T23:49:23.210Z,99636.94
2022-09-02T23:52:00.117Z,99637.78
2022-09-02T23:54:50.925Z,99626.63
2022-09-02T23:57:36.494Z,99626.78
